createdAt,value
2019-02-09T00:04:48.820Z,116.00
2019-02-09T00:09:55.835Z,112.20
2019-02-09T00:15:05.692Z,107.60
2019-02-09T00:20:11.587Z,113.33
2019-02-09T00:25:19.276Z,118.10
2019-02-09T00:30:27.957Z,118.50
2019-02-09T00:35:32.419Z,107.00
2019-02-09T00:40:36.843Z,108.00
2019-02-09T00:45:43.996Z,112.10
2019-02-09T00:50:51.695Z,109.82
2019-02-09T00:55:55.479Z,108.00
2019-02-09T01:01:02.695Z,117.70
2019-02-09T01:06:07.002Z,114.40
2019-02-09T01:11:18.787Z,117.10
2019-02-09T01:16:22.361Z,121.20
2019-02-09T01:21:25.826Z,130.00
2019-02-09T01:26:28.744Z,117.50
2019-02-09T01:31:37.487Z,136.67
2019-02-09T01:36:42.503Z,126.33
2019-02-09T01:41:50.558Z,137.64
2019-02-09T01:47:01.746Z,136.79
2019-02-09T01:52:07.355Z,141.00
2019-02-09T01:57:16.383Z,139.33
2019-02-09T02:02:20.890Z,142.33
2019-02-09T02:07:30.619Z,139.77
2019-02-09T02:12:35.447Z,139.80
2019-02-09T02:17:45.975Z,139.50
2019-02-09T02:22:49.991Z,155.80
2019-02-09T02:27:58.757Z,153.25
2019-02-09T02:33:03.960Z,159.00
2019-02-09T02:38:13.727Z,161.58
2019-02-09T02:43:22.480Z,163.50
2019-02-09T02:48:25.641Z,177.00
2019-02-09T02:53:35.323Z,161.42
2019-02-09T02:58:38.942Z,160.60
2019-02-09T03:03:47.855Z,162.50
2019-02-09T03:08:56.716Z,155.42
2019-02-09T03:14:01.057Z,169.00
2019-02-09T03:19:09.852Z,169.50
2019-02-09T03:24:22.138Z,160.00
2019-02-09T03:29:31.856Z,161.58
2019-02-09T03:34:38.451Z,165.37
2019-02-09T03:39:41.602Z,165.75
2019-02-09T03:44:46.713Z,159.33
2019-02-09T03:49:53.036Z,178.00
2019-02-09T03:54:57.670Z,162.50
2019-02-09T04:00:01.955Z,166.20
2019-02-09T04:05:08.697Z,166.20
2019-02-09T04:10:14.166Z,170.00
2019-02-09T04:15:20.394Z,167.00
2019-02-09T04:20:25.143Z,174.00
2019-02-09T04:25:29.483Z,163.40
2019-02-09T04:30:34.605Z,170.00
2019-02-09T04:35:46.687Z,159.42
2019-02-09T04:40:57.455Z,171.00
2019-02-09T04:46:03.463Z,170.00
2019-02-09T04:51:07.150Z,175.00
2019-02-09T04:56:12.822Z,171.14
2019-02-09T05:01:25.782Z,166.06
2019-02-09T05:06:50.639Z,166.86
2019-02-09T05:12:11.913Z,171.92
2019-02-09T05:17:16.046Z,170.40
2019-02-09T05:22:19.811Z,167.67
2019-02-09T05:27:24.243Z,173.40
2019-02-09T05:32:29.102Z,174.50
2019-02-09T05:37:40.502Z,174.29
2019-02-09T05:42:44.402Z,182.60
2019-02-09T05:47:53.062Z,175.50
2019-02-09T05:53:05.719Z,181.37
2019-02-09T05:58:09.684Z,180.00
2019-02-09T06:03:13.482Z,167.80
2019-02-09T06:08:17.894Z,172.17
2019-02-09T06:13:21.384Z,175.80
2019-02-09T06:18:25.544Z,169.00
2019-02-09T06:23:29.801Z,166.60
2019-02-09T06:28:39.624Z,169.67
2019-02-09T06:33:43.586Z,169.00
2019-02-09T06:38:49.509Z,159.67
2019-02-09T06:43:58.501Z,146.75
2019-02-09T06:49:02.442Z,147.00
2019-02-09T06:54:11.522Z,124.73
2019-02-09T06:59:20.616Z,76.25
2019-02-09T07:04:27.766Z,66.00
2019-02-09T07:09:31.578Z,95.00
2019-02-09T07:14:35.449Z,120.20
2019-02-09T07:19:39.495Z,136.80
2019-02-09T07:24:48.625Z,146.83
2019-02-09T07:29:52.370Z,184.20
2019-02-09T07:34:55.971Z,151.20
2019-02-09T07:40:04.787Z,116.00
2019-02-09T07:45:13.896Z,63.25
2019-02-09T07:50:19.280Z,41.00
2019-02-09T07:55:23.276Z,29.00
2019-02-09T08:00:29.698Z,30.00
2019-02-09T08:05:33.440Z,25.00
2019-02-09T08:10:39.792Z,25.37
2019-02-09T08:15:47.899Z,26.00
2019-02-09T08:20:52.632Z,25.50
2019-02-09T08:26:00.198Z,25.00
2019-02-09T08:31:04.449Z,22.00
2019-02-09T08:36:08.354Z,28.00
2019-02-09T08:41:11.538Z,27.50
2019-02-09T08:46:15.471Z,27.50
2019-02-09T08:51:23.495Z,35.00
2019-02-09T08:56:32.450Z,26.37
2019-02-09T09:01:37.167Z,24.50
2019-02-09T09:06:40.226Z,23.75
2019-02-09T09:11:48.499Z,28.75
2019-02-09T09:16:52.458Z,25.00
2019-02-09T09:21:58.061Z,26.12
2019-02-09T09:27:02.806Z,27.00
2019-02-09T09:32:10.072Z,23.57
2019-02-09T09:37:15.596Z,27.25
2019-02-09T09:42:22.570Z,27.87
2019-02-09T09:47:31.518Z,34.88
2019-02-09T09:52:36.211Z,27.50
2019-02-09T09:57:44.463Z,36.00
2019-02-09T10:02:49.556Z,29.50
2019-02-09T10:07:53.635Z,28.50
2019-02-09T10:12:58.018Z,27.33
2019-02-09T10:18:04.183Z,27.37
2019-02-09T10:23:07.392Z,21.00
2019-02-09T10:28:11.567Z,29.00
2019-02-09T10:33:20.035Z,46.63
2019-02-09T10:38:28.044Z,47.25
2019-02-09T10:43:36.267Z,46.63
2019-02-09T10:48:42.477Z,45.00
2019-02-09T10:53:47.855Z,38.00
2019-02-09T10:58:54.010Z,37.88
2019-02-09T11:03:57.519Z,44.00
2019-02-09T11:09:05.230Z,28.87
2019-02-09T11:14:13.816Z,30.25
2019-02-09T11:19:21.859Z,26.87
2019-02-09T11:24:27.939Z,23.57
2019-02-09T11:29:32.355Z,29.00
2019-02-09T11:34:40.778Z,36.25
2019-02-09T11:39:46.818Z,30.50
2019-02-09T11:44:50.364Z,27.50
2019-02-09T11:49:56.387Z,24.00
2019-02-09T11:55:00.595Z,25.33
2019-02-09T12:00:09.206Z,25.75
2019-02-09T12:05:16.050Z,37.13
2019-02-09T12:10:21.811Z,33.75
2019-02-09T12:15:36.318Z,35.50
2019-02-09T12:20:40.084Z,30.00
2019-02-09T12:25:47.846Z,20.62
2019-02-09T12:30:52.679Z,22.00
2019-02-09T12:35:55.878Z,30.33
2019-02-09T12:41:03.582Z,22.62
2019-02-09T12:46:08.132Z,20.00
2019-02-09T12:51:15.225Z,19.50
2019-02-09T12:56:21.636Z,18.25
2019-02-09T13:01:25.150Z,22.00
2019-02-09T13:06:28.364Z,15.00
2019-02-09T13:11:34.273Z,17.43
2019-02-09T13:16:41.315Z,22.00
2019-02-09T13:21:50.730Z,25.18
2019-02-09T13:26:55.986Z,20.00
2019-02-09T13:32:00.082Z,18.50
2019-02-09T13:37:06.415Z,21.37
2019-02-09T13:42:09.940Z,24.00
2019-02-09T13:47:12.854Z,14.33
2019-02-09T13:52:16.427Z,21.75
2019-02-09T13:57:22.505Z,24.25
2019-02-09T14:02:30.367Z,25.25
2019-02-09T14:07:33.822Z,18.00
2019-02-09T14:12:40.148Z,18.29
2019-02-09T14:17:43.629Z,22.25
2019-02-09T14:22:49.216Z,17.37
2019-02-09T14:27:53.336Z,19.33
2019-02-09T14:33:00.143Z,18.62
2019-02-09T14:38:06.977Z,22.37
2019-02-09T14:43:13.826Z,29.25
2019-02-09T14:48:21.978Z,22.00
2019-02-09T14:53:26.139Z,25.33
2019-02-09T14:58:29.344Z,20.75
2019-02-09T15:03:37.745Z,24.37
2019-02-09T15:08:42.458Z,25.50
2019-02-09T15:13:48.061Z,25.00
2019-02-09T15:18:53.725Z,22.86
2019-02-09T15:24:01.892Z,25.25
2019-02-09T15:29:09.371Z,21.00
2019-02-09T15:34:15.916Z,23.62
2019-02-09T15:39:20.750Z,17.00
2019-02-09T15:44:26.434Z,23.38
2019-02-09T15:49:34.645Z,19.12
2019-02-09T15:54:40.440Z,23.00
2019-02-09T15:59:47.002Z,29.12
2019-02-09T16:04:52.444Z,20.29
2019-02-09T16:09:56.554Z,23.67
2019-02-09T16:15:11.463Z,28.12
2019-02-09T16:20:16.151Z,23.00
2019-02-09T16:25:19.741Z,25.00
2019-02-09T16:30:26.871Z,28.00
2019-02-09T16:35:35.382Z,29.50
2019-02-09T16:40:40.078Z,29.00
2019-02-09T16:45:48.539Z,35.38
2019-02-09T16:50:55.082Z,43.00
2019-02-09T16:56:04.788Z,39.33
2019-02-09T17:01:12.038Z,41.13
2019-02-09T17:06:17.066Z,46.75
2019-02-09T17:11:26.354Z,39.33
2019-02-09T17:16:35.576Z,36.00
2019-02-09T17:21:44.641Z,36.50
2019-02-09T17:26:53.928Z,37.00
2019-02-09T17:32:02.947Z,34.50
2019-02-09T17:37:06.923Z,30.33
2019-02-09T17:42:15.345Z,33.63
2019-02-09T17:47:24.338Z,31.62
2019-02-09T17:52:31.846Z,33.25
2019-02-09T17:57:36.070Z,34.00
2019-02-09T18:02:44.422Z,33.13
2019-02-09T18:07:52.718Z,44.38
2019-02-09T18:13:02.028Z,43.38
2019-02-09T18:18:11.154Z,35.88
2019-02-09T18:23:15.314Z,34.00
2019-02-09T18:28:21.382Z,29.37
2019-02-09T18:33:26.282Z,42.00
2019-02-09T18:38:30.263Z,33.25
2019-02-09T18:43:36.720Z,29.56
2019-02-09T18:48:44.166Z,35.25
2019-02-09T18:53:51.503Z,35.63
2019-02-09T18:59:00.509Z,34.25
2019-02-09T19:04:07.782Z,37.50
2019-02-09T19:09:15.150Z,33.38
2019-02-09T19:14:19.539Z,32.67
2019-02-09T19:19:25.876Z,35.22
2019-02-09T19:24:34.810Z,34.63
2019-02-09T19:29:39.862Z,33.00
2019-02-09T19:34:50.416Z,33.33
2019-02-09T19:39:57.734Z,39.75
2019-02-09T19:45:08.456Z,39.75
2019-02-09T19:50:17.007Z,32.50
2019-02-09T19:55:27.768Z,31.67
2019-02-09T20:00:36.001Z,36.75
2019-02-09T20:05:40.759Z,32.29
2019-02-09T20:10:49.236Z,35.25
2019-02-09T20:15:53.586Z,37.33
2019-02-09T20:21:02.084Z,34.25
2019-02-09T20:26:06.334Z,34.25
2019-02-09T20:31:14.760Z,34.63
2019-02-09T20:36:18.203Z,33.75
2019-02-09T20:41:21.734Z,32.00
2019-02-09T20:46:30.183Z,31.75
2019-02-09T20:51:38.007Z,30.75
2019-02-09T20:56:47.353Z,28.38
2019-02-09T21:01:52.447Z,32.75
2019-02-09T21:06:59.884Z,44.00
2019-02-09T21:12:07.942Z,39.00
2019-02-09T21:17:15.230Z,32.13
2019-02-09T21:22:19.982Z,31.25
2019-02-09T21:27:23.937Z,30.00
2019-02-09T21:32:28.031Z,30.50
2019-02-09T21:37:36.446Z,29.50
2019-02-09T21:42:41.107Z,28.75
2019-02-09T21:47:44.199Z,25.00
2019-02-09T21:52:47.741Z,29.33
2019-02-09T21:57:52.026Z,29.25
2019-02-09T22:02:55.947Z,28.00
2019-02-09T22:08:00.787Z,30.75
2019-02-09T22:13:05.337Z,35.67
2019-02-09T22:18:09.375Z,33.00
2019-02-09T22:23:17.810Z,38.00
2019-02-09T22:28:24.430Z,38.88
2019-02-09T22:33:30.887Z,36.75
2019-02-09T22:38:38.336Z,29.86
2019-02-09T22:43:42.943Z,30.43
2019-02-09T22:48:46.398Z,29.00
2019-02-09T22:53:49.802Z,28.00
2019-02-09T22:58:54.937Z,25.00
2019-02-09T23:04:04.486Z,27.37
2019-02-09T23:09:13.873Z,25.75
2019-02-09T23:14:18.524Z,27.00
2019-02-09T23:19:27.320Z,26.12
2019-02-09T23:24:33.482Z,26.62
2019-02-09T23:29:37.827Z,28.50
2019-02-09T23:34:44.932Z,30.00
2019-02-09T23:39:52.837Z,24.43
2019-02-09T23:44:56.686Z,26.67
2019-02-09T23:50:04.648Z,29.50
2019-02-09T23:55:13.379Z,25.75
